Time,TemperatureF,DewpointF,PressureIn,WindDirection,WindDirectionDegrees,WindSpeedMPH,WindSpeedGustMPH,Humidity,HourlyPrecipIn,Conditions,Clouds,dailyrainin,SoftwareType,DateUTC
2013-01-21 00:03:00,44.2,40.0,30.09,NW,314,0.0,1.0,85,0.00,,,0.00,weatherlink.com 1.10,2013-01-21 05:03:00,
2013-01-21 00:17:00,43.5,39.0,30.08,NW,314,0.0,1.0,85,0.00,,,0.00,weatherlink.com 1.10,2013-01-21 05:17:00,
2013-01-21 00:33:00,43.4,39.0,30.08,NW,314,0.0,1.0,85,0.00,,,0.00,weatherlink.com 1.10,2013-01-21 05:33:00,
2013-01-21 00:48:00,43.7,39.0,30.08,WNW,301,0.0,1.0,84,0.00,,,0.00,weatherlink.com 1.10,2013-01-21 05:48:00,
2013-01-21 01:03:00,43.6,39.0,30.08,WNW,301,0.0,2.0,83,0.00,,,0.00,weatherlink.com 1.10,2013-01-21 06:03:00,
2013-01-21 01:18:00,43.4,39.0,30.08,WNW,300,1.0,2.0,84,0.00,,,0.00,weatherlink.com 1.10,2013-01-21 06:18:00,
2013-01-21 01:33:00,43.1,39.0,30.08,WNW,298,0.0,2.0,84,0.00,,,0.00,weatherlink.com 1.10,2013-01-21 06:33:00,
2013-01-21 01:48:00,42.7,38.0,30.08,WNW,302,0.0,2.0,84,0.00,,,0.00,weatherlink.com 1.10,2013-01-21 06:48:00,
2013-01-21 02:03:00,42.6,38.0,30.08,NW,306,1.0,2.0,83,0.00,,,0.00,weatherlink.com 1.10,2013-01-21 07:03:00,
2013-01-21 02:18:00,42.4,37.0,30.08,WNW,302,0.0,3.0,82,0.00,,,0.00,weatherlink.com 1.10,2013-01-21 07:18:00,
2013-01-21 02:33:00,42.6,37.0,30.08,WNW,293,1.0,4.0,81,0.00,,,0.00,weatherlink.com 1.10,2013-01-21 07:33:00,
2013-01-21 02:48:00,42.8,37.0,30.08,NW,305,0.0,3.0,80,0.00,,,0.00,weatherlink.com 1.10,2013-01-21 07:48:00,
2013-01-21 03:03:00,42.9,36.0,30.08,WNW,299,1.0,4.0,78,0.00,,,0.00,weatherlink.com 1.10,2013-01-21 08:03:00,
2013-01-21 03:18:00,42.1,36.0,30.08,WNW,294,1.0,3.0,80,0.00,,,0.00,weatherlink.com 1.10,2013-01-21 08:18:00,
2013-01-21 03:33:00,41.6,37.0,30.08,WNW,301,1.0,2.0,82,0.00,,,0.00,weatherlink.com 1.10,2013-01-21 08:33:00,
2013-01-21 03:48:00,40.8,36.0,30.08,WNW,301,1.0,3.0,84,0.00,,,0.00,weatherlink.com 1.10,2013-01-21 08:48:00,
2013-01-21 04:03:00,40.3,36.0,30.08,WNW,299,0.0,3.0,85,0.00,,,0.00,weatherlink.com 1.10,2013-01-21 09:03:00,
2013-01-21 04:18:00,39.7,36.0,30.08,NW,313,0.0,2.0,86,0.00,,,0.00,weatherlink.com 1.10,2013-01-21 09:18:00,
2013-01-21 04:33:00,38.9,35.0,30.07,NW,313,0.0,1.0,87,0.00,,,0.00,weatherlink.com 1.10,2013-01-21 09:33:00,
2013-01-21 04:48:00,38.4,35.0,30.07,NW,313,1.0,2.0,88,0.00,,,0.00,weatherlink.com 1.10,2013-01-21 09:48:00,
2013-01-21 05:03:00,38.3,35.0,30.08,WNW,302,1.0,3.0,88,0.00,,,0.00,weatherlink.com 1.10,2013-01-21 10:03:00,
2013-01-21 05:18:00,38.4,35.0,30.08,WNW,301,2.0,2.0,86,0.00,,,0.00,weatherlink.com 1.10,2013-01-21 10:18:00,
2013-01-21 05:33:00,38.0,34.0,30.08,NW,316,1.0,2.0,86,0.00,,,0.00,weatherlink.com 1.10,2013-01-21 10:33:00,
2013-01-21 05:48:00,38.0,34.0,30.07,NW,309,1.0,1.0,85,0.00,,,0.00,weatherlink.com 1.10,2013-01-21 10:48:00,
2013-01-21 06:03:00,38.0,34.0,30.07,NW,306,0.0,2.0,86,0.00,,,0.00,weatherlink.com 1.10,2013-01-21 11:03:00,
2013-01-21 06:18:00,38.1,34.0,30.07,WNW,291,1.0,2.0,85,0.00,,,0.00,weatherlink.com 1.10,2013-01-21 11:18:00,
2013-01-21 06:33:00,38.4,34.0,30.07,NW,309,0.0,2.0,84,0.00,,,0.00,weatherlink.com 1.10,2013-01-21 11:33:00,
2013-01-21 06:48:00,38.1,34.0,30.07,NW,319,0.0,2.0,85,0.00,,,0.00,weatherlink.com 1.10,2013-01-21 11:48:00,
2013-01-21 07:03:00,38.3,34.0,30.07,NW,307,0.0,2.0,84,0.00,,,0.00,weatherlink.com 1.10,2013-01-21 12:03:00,
2013-01-21 07:18:00,38.4,34.0,30.08,NW,316,0.0,1.0,85,0.00,,,0.00,weatherlink.com 1.10,2013-01-21 12:18:00,
2013-01-21 07:33:00,39.5,35.0,30.08,NW,305,1.0,2.0,83,0.00,,,0.00,weatherlink.com 1.10,2013-01-21 12:33:00,
2013-01-21 07:48:00,41.6,36.0,30.08,WNW,303,0.0,1.0,81,0.00,,,0.00,weatherlink.com 1.10,2013-01-21 12:48:00,
2013-01-21 08:03:00,43.4,37.0,30.08,North,9,0.0,1.0,78,0.00,,,0.00,weatherlink.com 1.10,2013-01-21 13:03:00,
2013-01-21 08:18:00,45.2,38.0,30.08,NNE,15,0.0,1.0,77,0.00,,,0.00,weatherlink.com 1.10,2013-01-21 13:18:00,
2013-01-21 08:33:00,46.3,39.0,30.08,NW,323,1.0,1.0,76,0.00,,,0.00,weatherlink.com 1.10,2013-01-21 13:33:00,
2013-01-21 08:48:00,48.3,41.0,30.09,NNE,21,0.0,1.0,76,0.00,,,0.00,weatherlink.com 1.10,2013-01-21 13:48:00,
2013-01-21 09:03:00,50.7,43.0,30.09,East,91,1.0,1.0,75,0.00,,,0.00,weatherlink.com 1.10,2013-01-21 14:03:00,
2013-01-21 09:19:00,50.3,44.0,30.09,ENE,77,4.0,7.0,78,0.00,,,0.00,weatherlink.com 1.10,2013-01-21 14:19:00,
2013-01-21 09:34:00,50.8,45.0,30.09,ENE,72,2.0,7.0,80,0.00,,,0.00,weatherlink.com 1.10,2013-01-21 14:34:00,
2013-01-21 09:49:00,51.6,45.0,30.09,ENE,63,3.0,5.0,79,0.00,,,0.00,weatherlink.com 1.10,2013-01-21 14:49:00,
2013-01-21 10:04:00,52.0,45.0,30.09,ENE,77,5.0,6.0,78,0.00,,,0.00,weatherlink.com 1.10,2013-01-21 15:04:00,
2013-01-21 10:19:00,51.9,46.0,30.09,ENE,70,2.0,6.0,80,0.00,,,0.00,weatherlink.com 1.10,2013-01-21 15:19:00,
2013-01-21 10:34:00,52.5,47.0,30.08,East,89,4.0,4.0,80,0.00,,,0.00,weatherlink.com 1.10,2013-01-21 15:34:00,
2013-01-21 10:49:00,52.5,45.0,30.08,East,87,4.0,5.0,77,0.00,,,0.00,weatherlink.com 1.10,2013-01-21 15:49:00,
2013-01-21 11:04:00,51.8,46.0,30.07,ENE,78,4.0,4.0,81,0.00,,,0.00,weatherlink.com 1.10,2013-01-21 16:04:00,
2013-01-21 11:19:00,52.0,46.0,30.06,East,88,3.0,5.0,81,0.00,,,0.00,weatherlink.com 1.10,2013-01-21 16:19:00,
2013-01-21 11:34:00,52.1,45.0,30.05,East,89,3.0,4.0,77,0.00,,,0.00,weatherlink.com 1.10,2013-01-21 16:34:00,
2013-01-21 11:49:00,53.3,46.0,30.04,ESE,120,2.0,2.0,77,0.00,,,0.00,weatherlink.com 1.10,2013-01-21 16:49:00,
2013-01-21 12:04:00,53.8,46.0,30.03,SE,134,1.0,2.0,75,0.00,,,0.00,weatherlink.com 1.10,2013-01-21 17:04:00,
2013-01-21 12:19:00,54.2,46.0,30.02,East,98,2.0,3.0,74,0.00,,,0.00,weatherlink.com 1.10,2013-01-21 17:19:00,
2013-01-21 12:34:00,54.2,47.0,30.00,East,100,2.0,3.0,77,0.00,,,0.00,weatherlink.com 1.10,2013-01-21 17:34:00,
2013-01-21 12:49:00,54.4,48.0,29.99,ESE,115,2.0,3.0,78,0.00,,,0.00,weatherlink.com 1.10,2013-01-21 17:49:00,
2013-01-21 13:04:00,54.5,48.0,29.98,East,100,1.0,3.0,80,0.00,,,0.00,weatherlink.com 1.10,2013-01-21 18:04:00,
2013-01-21 13:19:00,54.7,49.0,29.97,ESE,113,3.0,4.0,81,0.00,,,0.00,weatherlink.com 1.10,2013-01-21 18:19:00,
2013-01-21 13:34:00,54.7,49.0,29.96,East,91,3.0,3.0,82,0.00,,,0.00,weatherlink.com 1.10,2013-01-21 18:34:00,
2013-01-21 13:49:00,54.5,49.0,29.95,East,84,1.0,3.0,82,0.00,,,0.00,weatherlink.com 1.10,2013-01-21 18:49:00,
2013-01-21 14:04:00,55.3,49.0,29.95,East,88,3.0,3.0,79,0.00,,,0.00,weatherlink.com 1.10,2013-01-21 19:04:00,
2013-01-21 14:19:00,57.1,49.0,29.94,SW,226,4.0,7.0,73,0.00,,,0.00,weatherlink.com 1.10,2013-01-21 19:19:00,
2013-01-21 14:34:00,59.3,48.0,29.93,SSW,204,12.0,16.0,66,0.00,,,0.00,weatherlink.com 1.10,2013-01-21 19:34:00,
2013-01-21 14:49:00,59.3,47.0,29.92,SSW,204,10.0,15.0,65,0.00,,,0.00,weatherlink.com 1.10,2013-01-21 19:49:00,
2013-01-21 15:04:00,59.1,49.0,29.92,SW,225,11.0,15.0,69,0.00,,,0.00,weatherlink.com 1.10,2013-01-21 20:04:00,
2013-01-21 15:19:00,59.2,49.0,29.91,SSW,205,15.0,16.0,69,0.00,,,0.00,weatherlink.com 1.10,2013-01-21 20:19:00,
2013-01-21 15:34:00,59.4,49.0,29.91,SW,224,8.0,16.0,69,0.00,,,0.00,weatherlink.com 1.10,2013-01-21 20:34:00,
2013-01-21 16:05:00,58.7,49.0,29.90,SW,225,8.0,10.0,71,0.00,,,0.00,weatherlink.com 1.10,2013-01-21 21:05:00,
2013-01-21 16:20:00,58.3,49.0,29.89,SW,229,9.0,11.0,72,0.00,,,0.00,weatherlink.com 1.10,2013-01-21 21:20:00,
2013-01-21 16:35:00,58.0,49.0,29.90,SW,215,8.0,11.0,72,0.00,,,0.00,weatherlink.com 1.10,2013-01-21 21:35:00,
2013-01-21 16:50:00,57.6,49.0,29.89,SSW,210,7.0,10.0,73,0.00,,,0.00,weatherlink.com 1.10,2013-01-21 21:50:00,
2013-01-21 17:05:00,56.9,49.0,29.89,SW,223,8.0,8.0,76,0.00,,,0.00,weatherlink.com 1.10,2013-01-21 22:05:00,
2013-01-21 17:35:00,56.4,49.0,29.89,SSW,212,8.0,9.0,76,0.00,,,0.00,weatherlink.com 1.10,2013-01-21 22:35:00,
2013-01-21 17:50:00,56.2,49.0,29.89,SW,222,8.0,9.0,77,0.00,,,0.00,weatherlink.com 1.10,2013-01-21 22:50:00,
2013-01-21 18:05:00,55.8,49.0,29.89,SW,231,8.0,9.0,78,0.00,,,0.00,weatherlink.com 1.10,2013-01-21 23:05:00,
2013-01-21 18:20:00,55.9,49.0,29.89,SW,226,8.0,11.0,77,0.00,,,0.00,weatherlink.com 1.10,2013-01-21 23:20:00,
2013-01-21 18:35:00,55.8,49.0,29.90,SW,231,8.0,10.0,77,0.00,,,0.00,weatherlink.com 1.10,2013-01-21 23:35:00,
2013-01-21 18:50:00,55.6,49.0,29.90,WSW,239,5.0,8.0,77,0.00,,,0.00,weatherlink.com 1.10,2013-01-21 23:50:00,
2013-01-21 19:05:00,55.4,48.0,29.90,SW,226,5.0,8.0,77,0.00,,,0.00,weatherlink.com 1.10,2013-01-22 00:05:00,
2013-01-21 19:20:00,55.2,48.0,29.90,WSW,240,6.0,8.0,78,0.00,,,0.00,weatherlink.com 1.10,2013-01-22 00:20:00,
2013-01-21 19:35:00,55.0,48.0,29.90,WSW,238,4.0,8.0,78,0.00,,,0.00,weatherlink.com 1.10,2013-01-22 00:35:00,
2013-01-21 19:50:00,54.7,48.0,29.90,West,266,2.0,8.0,77,0.00,,,0.00,weatherlink.com 1.10,2013-01-22 00:50:00,
2013-01-21 20:05:00,54.5,47.0,29.91,SW,224,2.0,7.0,77,0.00,,,0.00,weatherlink.com 1.10,2013-01-22 01:05:00,
2013-01-21 20:20:00,54.2,47.0,29.91,West,274,2.0,5.0,76,0.00,,,0.00,weatherlink.com 1.10,2013-01-22 01:20:00,
2013-01-21 20:35:00,54.3,47.0,29.91,West,269,2.0,5.0,75,0.00,,,0.00,weatherlink.com 1.10,2013-01-22 01:35:00,
2013-01-21 20:50:00,54.5,46.0,29.91,West,270,1.0,4.0,74,0.00,,,0.00,weatherlink.com 1.10,2013-01-22 01:50:00,
2013-01-21 21:05:00,54.0,46.0,29.92,West,274,2.0,3.0,75,0.00,,,0.00,weatherlink.com 1.10,2013-01-22 02:05:00,
2013-01-21 21:20:00,53.5,46.0,29.92,West,271,1.0,5.0,75,0.00,,,0.00,weatherlink.com 1.10,2013-01-22 02:20:00,
2013-01-21 21:35:00,52.8,45.0,29.92,West,266,2.0,3.0,76,0.00,,,0.00,weatherlink.com 1.10,2013-01-22 02:35:00,
2013-01-21 21:50:00,52.2,45.0,29.92,West,264,1.0,3.0,76,0.00,,,0.00,weatherlink.com 1.10,2013-01-22 02:50:00,
2013-01-21 22:05:00,52.0,45.0,29.92,West,272,2.0,4.0,76,0.00,,,0.00,weatherlink.com 1.10,2013-01-22 03:05:00,
2013-01-21 22:20:00,51.9,44.0,29.92,West,276,2.0,4.0,75,0.00,,,0.00,weatherlink.com 1.10,2013-01-22 03:20:00,
2013-01-21 22:35:00,52.1,44.0,29.92,West,262,2.0,5.0,73,0.00,,,0.00,weatherlink.com 1.10,2013-01-22 03:35:00,
2013-01-21 22:50:00,52.6,42.0,29.92,WSW,249,2.0,7.0,68,0.00,,,0.00,weatherlink.com 1.10,2013-01-22 03:50:00,
2013-01-21 23:05:00,53.1,41.0,29.92,West,264,2.0,6.0,63,0.00,,,0.00,weatherlink.com 1.10,2013-01-22 04:05:00,
2013-01-21 23:20:00,53.1,41.0,29.92,West,263,2.0,4.0,63,0.00,,,0.00,weatherlink.com 1.10,2013-01-22 04:20:00,
2013-01-21 23:35:00,52.5,41.0,29.93,NW,309,2.0,3.0,64,0.00,,,0.00,weatherlink.com 1.10,2013-01-22 04:35:00,
2013-01-21 23:50:00,52.1,40.0,29.93,NW,312,1.0,4.0,63,0.00,,,0.00,weatherlink.com 1.10,2013-01-22 04:50:00,